Time;durP1;ratioP1;P1;durP2;ratioP2;P2;SDS_P1;SDS_P2;PMS_P1;PMS_P2;Temp;Humidity;BMP_temperature;BMP_pressure;BME280_temperature;BME280_humidity;BME280_pressure;Samples;Min_cycle;Max_cycle;Signal;HPM_P1;HPM_P2
2021/08/26 00:06:48;;;;;;;8.30;7.50;;;15.90;99.90;;;;;;4938852;29;20450;-86
2021/08/26 00:09:17;;;;;;;8.27;7.47;;;15.90;99.90;;;;;;4938936;29;20553;-85
2021/08/26 00:11:46;;;;;;;8.60;6.83;;;15.90;99.90;;;;;;4938588;29;20477;-86
2021/08/26 00:14:17;;;;;;;9.53;6.70;;;15.90;99.90;;;;;;4938850;29;20455;-86
2021/08/26 00:16:52;;;;;;;8.17;6.70;;;15.80;99.90;;;;;;4939209;29;20458;-85
2021/08/26 00:19:20;;;;;;;9.97;7.33;;;15.80;99.90;;;;;;4939043;29;20450;-85
2021/08/26 00:21:47;;;;;;;11.43;7.87;;;15.80;99.90;;;;;;4938131;29;20510;-86
2021/08/26 00:24:31;;;;;;;9.23;8.17;;;15.80;99.90;;;;;;4938665;29;20453;-86
2021/08/26 00:27:09;;;;;;;7.90;7.10;;;15.80;99.90;;;;;;4939139;29;20454;-86
2021/08/26 00:33:10;;;;;;;10.03;6.97;;;15.60;99.90;;;;;;4936616;29;20842;-86
2021/08/26 00:36:16;;;;;;;8.00;7.30;;;15.60;99.90;;;;;;4939414;29;20548;-85
2021/08/26 00:46:22;;;;;;;9.97;7.10;;;15.40;99.90;;;;;;4925552;29;20576;-86
2021/08/26 00:52:23;;;;;;;8.33;7.53;;;15.20;99.90;;;;;;4935644;29;20470;-86
2021/08/26 00:58:07;;;;;;;7.90;7.20;;;15.10;99.90;;;;;;4935373;29;20846;-86
2021/08/26 01:07:47;;;;;;;11.40;7.87;;;14.90;99.90;;;;;;4935571;29;20833;-86
2021/08/26 01:10:43;;;;;;;8.33;7.53;;;14.90;99.90;;;;;;4938522;29;20457;-86
2021/08/26 01:20:20;;;;;;;7.97;7.30;;;14.70;99.90;;;;;;4909385;29;20486;-85
2021/08/26 01:23:19;;;;;;;;;;;;;;;;;;;;;
2021/08/26 01:26:26;;;;;;;9.30;8.60;;;14.50;99.90;;;;;;4890734;29;21025;-85
2021/08/26 01:29:57;;;;;;;7.70;7.00;;;14.50;99.90;;;;;;4939072;29;20442;-86
2021/08/26 01:32:32;;;;;;;8.40;7.50;;;14.50;99.90;;;;;;4866674;29;20480;-86
2021/08/26 01:35:29;;;;;;;9.17;7.30;;;14.40;99.90;;;;;;4879502;29;20511;-86
2021/08/26 01:44:16;;;;;;;9.60;7.07;;;14.30;99.90;;;;;;4768662;30;20474;-86
2021/08/26 01:53:06;;;;;;;7.67;7.00;;;14.30;99.90;;;;;;4931294;29;20466;-86
2021/08/26 01:59:16;;;;;;;7.37;6.47;;;14.20;99.90;;;;;;4937143;29;20443;-85
2021/08/26 02:02:04;;;;;;;8.47;7.67;;;14.20;99.90;;;;;;4936514;29;20844;-86
2021/08/26 02:04:40;;;;;;;7.50;6.67;;;14.20;99.90;;;;;;4937180;29;20911;-85
2021/08/26 02:07:44;;;;;;;7.87;7.13;;;14.10;99.90;;;;;;4937172;29;20458;-86
2021/08/26 02:10:31;;;;;;;7.73;7.10;;;14.10;99.90;;;;;;4937413;29;20516;-86
2021/08/26 02:13:22;;;;;;;8.33;7.53;;;14.00;99.90;;;;;;4937065;29;20481;-86
2021/08/26 02:16:16;;;;;;;6.80;6.07;;;14.00;99.90;;;;;;4932309;29;20968;-86
2021/08/26 02:18:56;;;;;;;8.00;6.97;;;14.00;99.90;;;;;;4915783;29;20472;-86
2021/08/26 02:21:42;;;;;;;8.53;7.63;;;13.90;99.90;;;;;;4936519;29;20497;-86
2021/08/26 02:27:57;;;;;;;11.27;7.90;;;13.90;99.90;;;;;;4934714;29;20478;-85
2021/08/26 02:30:51;;;;;;;8.50;7.70;;;13.70;99.90;;;;;;4938427;29;20449;-86
2021/08/26 02:33:48;;;;;;;9.47;8.57;;;13.50;99.90;;;;;;4930048;29;20481;-86
2021/08/26 02:36:51;;;;;;;9.33;8.17;;;13.30;99.90;;;;;;4937958;29;20579;-86
2021/08/26 02:42:38;;;;;;;12.63;7.27;;;13.30;99.90;;;;;;4932742;29;21127;-85
2021/08/26 02:45:34;;;;;;;9.00;7.27;;;13.20;99.90;;;;;;4937109;29;20529;-86
2021/08/26 02:48:29;;;;;;;8.43;7.63;;;13.20;99.90;;;;;;4937389;29;21044;-86
2021/08/26 02:54:28;;;;;;;10.60;8.20;;;13.10;99.90;;;;;;4878469;29;20448;-86
2021/08/26 02:57:28;;;;;;;9.43;8.40;;;13.20;99.90;;;;;;4928580;29;20457;-86
2021/08/26 03:00:30;;;;;;;9.60;8.20;;;13.20;99.90;;;;;;4937202;29;20470;-86
2021/08/26 03:03:37;;;;;;;10.60;8.47;;;13.20;99.90;;;;;;4878358;29;20488;-86
2021/08/26 03:06:36;;;;;;;9.07;8.27;;;13.30;99.90;;;;;;4919755;29;20496;-85
2021/08/26 03:09:21;;;;;;;7.93;7.13;;;13.50;99.90;;;;;;4937311;29;20578;-86
2021/08/26 03:12:07;;;;;;;8.20;7.40;;;13.50;99.90;;;;;;4936770;29;20485;-86
2021/08/26 03:14:55;;;;;;;;;;;;;;;;;;;;;
2021/08/26 03:17:30;;;;;;;9.60;8.50;;;13.60;99.90;;;;;;4937070;29;20453;-86
2021/08/26 03:20:06;;;;;;;9.40;7.70;;;13.70;99.90;;;;;;4937423;29;20457;-86
2021/08/26 03:22:33;;;;;;;8.60;7.80;;;13.90;99.90;;;;;;4936654;29;20481;-85
2021/08/26 03:25:00;;;;;;;7.73;7.03;;;14.00;99.90;;;;;;4936422;29;20470;-86
2021/08/26 03:27:44;;;;;;;12.27;8.40;;;14.00;99.90;;;;;;4936389;29;20445;-85
2021/08/26 03:30:20;;;;;;;9.30;7.63;;;13.90;99.90;;;;;;4936495;29;20454;-85
2021/08/26 03:32:49;;;;;;;8.30;7.50;;;13.90;99.90;;;;;;4936335;29;20847;-86
2021/08/26 03:35:17;;;;;;;9.80;8.83;;;13.90;99.90;;;;;;4936780;29;20530;-86
2021/08/26 03:37:59;;;;;;;9.50;8.57;;;13.80;99.90;;;;;;4936196;29;20472;-85
2021/08/26 03:40:44;;;;;;;9.30;8.40;;;13.80;99.90;;;;;;4936932;29;20450;-86
2021/08/26 03:43:36;;;;;;;9.77;8.77;;;13.70;99.90;;;;;;4937328;29;20469;-86
2021/08/26 03:46:27;;;;;;;8.73;7.60;;;13.70;99.90;;;;;;4933559;29;20487;-85
2021/08/26 03:48:55;;;;;;;10.17;9.20;;;13.60;99.90;;;;;;4937823;29;20449;-86
2021/08/26 03:51:39;;;;;;;7.60;7.00;;;13.60;99.90;;;;;;4936402;29;20446;-86
2021/08/26 03:54:07;;;;;;;8.80;7.40;;;13.60;99.90;;;;;;4937143;29;20457;-85
2021/08/26 03:56:36;;;;;;;9.77;6.87;;;13.60;99.90;;;;;;4936837;29;20453;-86
2021/08/26 03:59:15;;;;;;;8.20;7.40;;;13.60;99.90;;;;;;4936861;29;20801;-86
2021/08/26 04:02:12;;;;;;;8.80;7.60;;;13.70;99.90;;;;;;4935871;29;20960;-85
2021/08/26 04:04:39;;;;;;;8.03;7.13;;;13.80;99.90;;;;;;4935880;29;20466;-86
2021/08/26 04:07:20;;;;;;;8.37;7.70;;;14.00;99.90;;;;;;4937600;29;20511;-85
2021/08/26 04:10:15;;;;;;;9.13;8.20;;;14.00;99.90;;;;;;4939433;29;20482;-85
2021/08/26 04:12:47;;;;;;;9.53;8.50;;;13.90;99.90;;;;;;4939536;29;20496;-86
2021/08/26 04:15:43;;;;;;;8.80;7.87;;;13.80;99.90;;;;;;4940049;29;20465;-85
2021/08/26 04:18:20;;;;;;;9.40;8.60;;;13.80;99.90;;;;;;4940559;29;20469;-85
2021/08/26 04:20:54;;;;;;;8.53;7.67;;;13.70;99.90;;;;;;4939550;29;20571;-85
2021/08/26 04:23:29;;;;;;;8.57;7.73;;;13.70;99.90;;;;;;4938606;29;20862;-85
2021/08/26 04:25:56;;;;;;;9.30;8.20;;;13.70;99.90;;;;;;4939116;29;20568;-85
2021/08/26 04:28:23;;;;;;;10.17;8.50;;;13.70;99.90;;;;;;4938998;29;20457;-86
2021/08/26 04:31:09;;;;;;;9.70;8.77;;;13.70;99.90;;;;;;4938830;29;20517;-85
2021/08/26 04:33:38;;;;;;;9.40;8.50;;;13.80;99.90;;;;;;4938856;29;20465;-85
2021/08/26 04:36:05;;;;;;;8.33;7.50;;;13.80;99.90;;;;;;4938514;29;21025;-85
2021/08/26 04:38:33;;;;;;;8.77;7.90;;;13.80;99.90;;;;;;4938952;29;20458;-86
2021/08/26 04:41:11;;;;;;;9.50;8.53;;;13.80;99.90;;;;;;4939031;29;20422;-86
2021/08/26 04:43:41;;;;;;;9.50;8.70;;;13.80;99.90;;;;;;4936354;29;20823;-87
2021/08/26 04:46:18;;;;;;;8.67;7.87;;;13.90;99.90;;;;;;4937059;29;20478;-87
2021/08/26 04:49:07;;;;;;;7.73;7.03;;;13.90;99.90;;;;;;4936988;29;20821;-85
2021/08/26 04:52:02;;;;;;;8.90;8.00;;;14.00;99.90;;;;;;4938497;29;20830;-85
2021/08/26 04:54:55;;;;;;;8.93;7.80;;;14.10;99.90;;;;;;4936777;29;20465;-86
2021/08/26 04:57:31;;;;;;;10.53;8.53;;;14.30;99.90;;;;;;4935194;29;20454;-85
2021/08/26 05:00:18;;;;;;;10.07;9.07;;;14.50;99.90;;;;;;4936591;29;20460;-86
2021/08/26 05:03:05;;;;;;;;;;;;;;;;;;;;;
2021/08/26 05:05:47;;;;;;;9.10;8.20;;;14.70;99.90;;;;;;4938895;29;20954;-85
2021/08/26 05:08:14;;;;;;;11.00;8.90;;;14.70;99.90;;;;;;4937827;29;20523;-85
2021/08/26 05:10:44;;;;;;;11.47;9.37;;;14.70;99.90;;;;;;4937892;29;20924;-85
2021/08/26 05:13:17;;;;;;;10.73;8.67;;;14.60;99.90;;;;;;4937245;29;20633;-86
2021/08/26 05:15:44;;;;;;;9.73;8.83;;;14.70;99.90;;;;;;4937946;29;20471;-86
2021/08/26 05:18:31;;;;;;;9.43;8.27;;;14.70;99.90;;;;;;4937135;29;20459;-85
2021/08/26 05:21:00;;;;;;;9.30;8.40;;;14.70;99.90;;;;;;4936829;29;20428;-87
2021/08/26 05:24:00;;;;;;;7.80;7.00;;;14.80;99.90;;;;;;4935524;29;20491;-86
2021/08/26 05:26:40;;;;;;;9.20;7.87;;;14.90;99.90;;;;;;4936360;29;20486;-87
2021/08/26 05:29:31;;;;;;;10.03;8.40;;;15.00;99.90;;;;;;4935755;29;20473;-87
2021/08/26 05:32:10;;;;;;;;;;;;;;;;;;;;;
2021/08/26 05:34:46;;;;;;;9.13;7.83;;;15.20;99.90;;;;;;4936449;29;20446;-87
2021/08/26 05:37:16;;;;;;;9.43;8.63;;;15.20;99.90;;;;;;4935707;29;20494;-87
2021/08/26 05:39:43;;;;;;;8.67;7.80;;;15.20;99.90;;;;;;4936448;29;20475;-87
2021/08/26 05:42:47;;;;;;;9.60;7.93;;;15.30;99.90;;;;;;4935735;29;20484;-88
2021/08/26 05:45:19;;;;;;;8.60;6.90;;;15.20;99.90;;;;;;4918982;29;20447;-86
2021/08/26 05:47:57;;;;;;;9.23;8.23;;;15.20;99.90;;;;;;4936075;29;20556;-87
2021/08/26 05:50:31;;;;;;;9.50;8.60;;;15.20;99.90;;;;;;4936722;29;20518;-86
2021/08/26 05:53:15;;;;;;;9.33;8.33;;;15.40;99.90;;;;;;4935997;29;20495;-86
2021/08/26 05:56:05;;;;;;;9.23;8.33;;;15.40;99.90;;;;;;4936513;29;20493;-86
2021/08/26 05:58:44;;;;;;;8.33;7.53;;;15.40;99.90;;;;;;4936449;29;20820;-87
2021/08/26 06:01:11;;;;;;;11.77;8.80;;;15.50;99.90;;;;;;4936127;29;20487;-87
2021/08/26 06:03:45;;;;;;;12.70;9.40;;;15.60;99.90;;;;;;4935558;29;20462;-87
2021/08/26 06:06:14;;;;;;;8.33;7.57;;;15.50;99.90;;;;;;4935953;29;20584;-87
2021/08/26 06:08:40;;;;;;;12.13;8.10;;;15.40;99.90;;;;;;4943621;29;20438;-86
2021/08/26 06:11:07;;;;;;;8.63;7.73;;;15.40;99.90;;;;;;4944275;28;20462;-88
2021/08/26 06:13:34;;;;;;;9.10;8.20;;;15.40;99.90;;;;;;4943702;28;20462;-88
2021/08/26 06:16:01;;;;;;;9.13;8.23;;;15.40;99.90;;;;;;4944769;29;20458;-87
2021/08/26 06:18:28;;;;;;;8.70;8.00;;;15.50;99.90;;;;;;4942987;29;20933;-87
2021/08/26 06:20:55;;;;;;;11.60;8.43;;;15.60;99.90;;;;;;4944153;28;20485;-87
2021/08/26 06:23:23;;;;;;;9.10;8.30;;;15.70;99.90;;;;;;4943920;29;20562;-87
2021/08/26 06:26:00;;;;;;;8.80;7.27;;;15.80;99.90;;;;;;4942896;29;20538;-87
2021/08/26 06:28:38;;;;;;;10.90;9.40;;;15.80;99.90;;;;;;4942528;29;20453;-86
2021/08/26 06:31:10;;;;;;;8.20;7.40;;;15.90;99.90;;;;;;4942291;29;20503;-83
2021/08/26 06:33:43;;;;;;;9.57;8.53;;;15.90;99.90;;;;;;4949145;29;20911;-85
2021/08/26 06:36:11;;;;;;;8.73;7.57;;;15.80;99.90;;;;;;4934248;29;20557;-85
2021/08/26 06:38:40;;;;;;;10.03;8.47;;;15.80;99.90;;;;;;4935560;29;20526;-84
2021/08/26 06:41:10;;;;;;;8.47;7.77;;;15.70;99.90;;;;;;4936558;29;20459;-82
2021/08/26 06:43:37;;;;;;;8.27;7.43;;;15.70;99.90;;;;;;4935739;29;20549;-84
2021/08/26 06:46:04;;;;;;;10.60;7.93;;;15.60;99.90;;;;;;4940328;29;20443;-84
2021/08/26 06:48:30;;;;;;;11.03;9.77;;;15.60;99.90;;;;;;4946440;29;20821;-83
2021/08/26 06:50:57;;;;;;;16.07;11.00;;;15.50;99.90;;;;;;4950150;29;20450;-83
2021/08/26 06:53:24;;;;;;;10.47;9.57;;;15.50;99.90;;;;;;4949185;29;20554;-83
2021/08/26 06:55:54;;;;;;;13.70;8.20;;;15.50;99.90;;;;;;4937998;29;20461;-83
2021/08/26 06:58:20;;;;;;;9.83;8.20;;;15.60;99.90;;;;;;4939057;29;20459;-83
2021/08/26 07:00:47;;;;;;;11.67;8.60;;;15.50;99.90;;;;;;4940443;29;20451;-83
2021/08/26 07:03:14;;;;;;;9.47;8.33;;;15.50;99.90;;;;;;4938607;29;20483;-83
2021/08/26 07:05:40;;;;;;;8.87;7.97;;;15.60;99.90;;;;;;4939976;29;20977;-83
2021/08/26 07:08:07;;;;;;;9.97;9.07;;;15.50;99.90;;;;;;4939630;29;20493;-83
2021/08/26 07:10:34;;;;;;;12.10;11.00;;;15.50;99.90;;;;;;4940438;29;20466;-83
2021/08/26 07:13:02;;;;;;;11.13;10.03;;;15.60;99.90;;;;;;4938246;29;20479;-83
2021/08/26 07:15:29;;;;;;;12.00;9.87;;;15.50;99.90;;;;;;4938077;29;20464;-85
2021/08/26 07:17:56;;;;;;;13.70;9.70;;;15.50;99.90;;;;;;4936421;29;20461;-86
2021/08/26 07:20:22;;;;;;;12.60;11.30;;;15.50;99.90;;;;;;4936513;29;20456;-87
2021/08/26 07:22:49;;;;;;;10.80;9.80;;;15.50;99.90;;;;;;4935221;29;20474;-87
2021/08/26 07:25:16;;;;;;;13.60;12.20;;;15.50;99.90;;;;;;4935981;29;20493;-86
2021/08/26 07:27:45;;;;;;;11.93;10.83;;;15.50;99.90;;;;;;4935953;29;20498;-87
2021/08/26 07:30:13;;;;;;;11.67;10.50;;;15.60;99.90;;;;;;4936247;29;20457;-86
2021/08/26 07:32:40;;;;;;;14.47;10.87;;;15.50;99.90;;;;;;4935889;29;20496;-85
2021/08/26 07:35:08;;;;;;;13.83;10.23;;;15.60;99.90;;;;;;4936174;29;20836;-86
2021/08/26 07:37:34;;;;;;;12.97;9.57;;;15.60;99.90;;;;;;4935741;29;20464;-86
2021/08/26 07:40:01;;;;;;;13.10;10.17;;;15.80;99.90;;;;;;4935517;29;20829;-87
2021/08/26 07:42:28;;;;;;;13.80;11.87;;;15.90;99.90;;;;;;4938233;29;20467;-85
2021/08/26 07:45:01;;;;;;;11.63;10.53;;;15.90;99.90;;;;;;4941586;29;20465;-86
2021/08/26 07:47:30;;;;;;;13.63;12.33;;;16.00;99.90;;;;;;4941529;29;20531;-85
2021/08/26 07:49:58;;;;;;;11.40;10.37;;;16.00;99.90;;;;;;4941291;29;20807;-86
2021/08/26 07:52:30;;;;;;;13.47;12.17;;;15.90;99.90;;;;;;4941115;29;20500;-85
2021/08/26 07:54:57;;;;;;;15.80;14.20;;;16.10;99.90;;;;;;4941527;29;20462;-85
2021/08/26 07:57:23;;;;;;;12.90;11.17;;;16.10;99.90;;;;;;4940768;29;20443;-86
2021/08/26 07:59:50;;;;;;;11.63;9.93;;;16.10;99.90;;;;;;4941320;29;20455;-86
2021/08/26 08:02:17;;;;;;;12.80;10.73;;;16.30;99.90;;;;;;4940082;29;20947;-85
2021/08/26 08:04:45;;;;;;;10.40;9.30;;;16.50;99.90;;;;;;4941403;29;20975;-86
2021/08/26 08:07:13;;;;;;;12.70;11.40;;;16.70;99.90;;;;;;4940694;29;20496;-87
2021/08/26 08:09:44;;;;;;;10.77;9.67;;;16.70;99.90;;;;;;4939224;29;20455;-87
2021/08/26 08:12:11;;;;;;;12.10;10.93;;;16.80;99.90;;;;;;4938033;29;20481;-86
2021/08/26 08:14:38;;;;;;;12.33;10.73;;;16.80;99.90;;;;;;4938905;29;20807;-87
2021/08/26 08:17:05;;;;;;;13.00;11.70;;;16.80;99.90;;;;;;4938613;29;20487;-87
2021/08/26 08:19:32;;;;;;;11.10;10.17;;;16.70;99.90;;;;;;4938609;29;20913;-87
2021/08/26 08:22:00;;;;;;;12.87;10.50;;;16.60;99.90;;;;;;4937808;29;20568;-87
2021/08/26 08:24:27;;;;;;;11.47;10.30;;;16.70;99.90;;;;;;4938414;29;20458;-87
2021/08/26 08:26:54;;;;;;;13.67;12.27;;;16.70;99.90;;;;;;4938825;29;20515;-87
2021/08/26 08:29:21;;;;;;;12.60;11.00;;;16.60;99.90;;;;;;4938445;29;20462;-87
2021/08/26 08:31:48;;;;;;;10.30;9.33;;;16.40;99.90;;;;;;4937528;29;20472;-86
2021/08/26 08:34:15;;;;;;;11.43;10.33;;;16.40;99.90;;;;;;4938523;29;20456;-87
2021/08/26 08:36:42;;;;;;;12.27;11.07;;;16.30;99.90;;;;;;4938431;29;20493;-86
2021/08/26 08:39:10;;;;;;;10.37;9.47;;;16.30;99.90;;;;;;4938978;29;20464;-87
2021/08/26 08:41:37;;;;;;;12.03;10.83;;;16.20;99.90;;;;;;4937917;29;21164;-87
2021/08/26 08:44:04;;;;;;;12.53;11.30;;;16.10;99.90;;;;;;4938416;29;20862;-87
2021/08/26 08:46:34;;;;;;;12.17;10.93;;;16.00;99.90;;;;;;4938320;29;21010;-87
2021/08/26 08:49:03;;;;;;;13.73;12.07;;;15.90;99.90;;;;;;4938119;29;20904;-87
2021/08/26 08:51:31;;;;;;;15.23;13.67;;;15.90;99.90;;;;;;4938449;29;20475;-87
2021/08/26 08:53:58;;;;;;;15.87;14.40;;;15.70;99.90;;;;;;4938281;29;20459;-86
2021/08/26 08:56:29;;;;;;;16.37;14.87;;;15.50;99.90;;;;;;4938536;29;20471;-87
2021/08/26 08:59:00;;;;;;;18.07;16.33;;;15.30;99.90;;;;;;4938210;29;20447;-87
2021/08/26 09:01:27;;;;;;;18.80;17.10;;;15.20;99.90;;;;;;4936903;29;20583;-86
2021/08/26 09:03:54;;;;;;;17.90;16.17;;;15.10;99.90;;;;;;4936954;29;20963;-86
2021/08/26 09:06:20;;;;;;;18.67;16.87;;;15.00;99.90;;;;;;4937359;29;20469;-86
2021/08/26 09:09:01;;;;;;;19.50;17.63;;;14.80;99.90;;;;;;4937228;29;20490;-86
2021/08/26 09:11:29;;;;;;;18.50;16.80;;;14.70;99.90;;;;;;4936137;29;20564;-86
2021/08/26 09:13:56;;;;;;;22.63;20.60;;;14.70;99.90;;;;;;4936402;29;20975;-87
2021/08/26 09:16:36;;;;;;;21.20;19.20;;;14.60;99.90;;;;;;4936633;29;20801;-86
2021/08/26 09:19:17;;;;;;;22.83;20.23;;;14.50;99.90;;;;;;4936556;29;20497;-86
2021/08/26 09:21:44;;;;;;;22.40;20.07;;;14.60;99.90;;;;;;4935692;29;20483;-86
2021/08/26 09:24:11;;;;;;;24.43;21.83;;;14.60;99.90;;;;;;4936529;29;20819;-86
2021/08/26 09:26:47;;;;;;;23.53;21.00;;;14.70;99.90;;;;;;4936401;29;20481;-87
2021/08/26 09:29:15;;;;;;;23.53;20.23;;;14.70;99.90;;;;;;4936899;29;20501;-86
2021/08/26 09:31:44;;;;;;;24.50;20.30;;;14.70;99.90;;;;;;4941715;29;20486;-86
2021/08/26 09:34:13;;;;;;;22.47;20.47;;;14.70;99.90;;;;;;4941673;29;20460;-86
2021/08/26 09:37:39;;;;;;;23.43;20.93;;;14.70;99.90;;;;;;4939908;29;20957;-86
2021/08/26 09:40:12;;;;;;;23.07;20.30;;;14.70;99.90;;;;;;4940400;29;20459;-87
2021/08/26 09:42:48;;;;;;;23.97;21.47;;;14.90;99.90;;;;;;4938244;29;20832;-87
2021/08/26 09:45:20;;;;;;;23.40;20.40;;;14.90;99.90;;;;;;4939141;29;20451;-87
2021/08/26 10:01:40;;;;;;;19.27;17.33;;;14.80;99.90;;;;;;4775242;29;20475;-89
2021/08/26 10:04:31;;;;;;;14.20;12.70;;;14.80;99.90;;;;;;4899356;29;20463;-89
2021/08/26 10:07:13;;;;;;;11.97;10.97;;;14.90;99.90;;;;;;4935413;29;20477;-89
2021/08/26 10:16:39;;;;;;;8.00;7.27;;;14.80;99.90;;;;;;4899783;29;20569;-88
2021/08/26 10:20:00;;;;;;;8.30;7.57;;;14.90;99.90;;;;;;4943675;29;20951;-87
2021/08/26 10:23:12;;;;;;;8.03;7.43;;;15.00;99.90;;;;;;4942427;29;20553;-86
2021/08/26 10:26:44;;;;;;;6.57;6.07;;;15.00;99.90;;;;;;4860467;29;21080;-87
2021/08/26 10:36:30;;;;;;;3.63;3.33;;;14.60;99.90;;;;;;4830836;29;20595;-86
2021/08/26 10:39:27;;;;;;;3.80;3.50;;;14.40;99.90;;;;;;4930236;29;20463;-84
2021/08/26 10:41:54;;;;;;;4.03;3.73;;;14.60;99.90;;;;;;4947870;29;20696;-83
2021/08/26 10:44:24;;;;;;;3.30;3.10;;;14.70;99.90;;;;;;4949282;29;20481;-83
2021/08/26 10:46:52;;;;;;;3.00;2.80;;;14.70;99.90;;;;;;4948221;29;20454;-83
2021/08/26 10:50:16;;;;;;;3.00;2.80;;;14.70;99.90;;;;;;4948244;29;20863;-83
2021/08/26 10:53:02;;;;;;;3.87;3.63;;;14.70;99.90;;;;;;4946236;29;20484;-83
2021/08/26 10:55:31;;;;;;;3.80;3.50;;;14.90;99.90;;;;;;4948940;28;20457;-82
2021/08/26 10:58:36;;;;;;;3.13;2.83;;;15.20;99.90;;;;;;4961499;29;20832;-84
2021/08/26 11:01:07;;;;;;;3.77;3.47;;;15.30;99.90;;;;;;4946693;29;20980;-83
2021/08/26 11:04:00;;;;;;;2.87;2.67;;;15.40;99.90;;;;;;4972060;28;20464;-83
2021/08/26 11:06:41;;;;;;;4.17;3.40;;;15.40;99.90;;;;;;4984686;28;20456;-84
2021/08/26 11:09:42;;;;;;;4.10;3.70;;;15.50;99.90;;;;;;4986882;28;20494;-84
2021/08/26 11:12:26;;;;;;;4.83;4.37;;;15.70;99.90;;;;;;4987752;28;20475;-84
2021/08/26 11:14:54;;;;;;;6.77;4.37;;;15.60;99.90;;;;;;4988258;28;20447;-84
2021/08/26 11:17:42;;;;;;;4.97;4.57;;;15.70;99.90;;;;;;4986252;28;20455;-84
2021/08/26 11:24:09;;;;;;;5.30;4.20;;;16.40;99.90;;;;;;4867781;29;20478;-84
2021/08/26 11:34:40;;;;;;;6.40;5.20;;;18.20;99.90;;;;;;4836959;29;20498;-83
2021/08/26 11:44:13;;;;;;;6.40;4.30;;;18.10;99.90;;;;;;4826404;29;20481;-82
2021/08/26 11:46:42;;;;;;;8.53;5.50;;;18.10;99.90;;;;;;4824699;29;20466;-83
2021/08/26 11:49:10;;;;;;;5.60;5.10;;;17.70;99.90;;;;;;4854550;29;20496;-83
2021/08/26 11:51:42;;;;;;;5.40;4.90;;;17.50;99.90;;;;;;4930819;28;20483;-82
2021/08/26 11:54:13;;;;;;;6.37;5.33;;;17.30;99.90;;;;;;4962889;28;20459;-82
2021/08/26 11:56:50;;;;;;;6.90;5.97;;;17.10;99.90;;;;;;4959179;28;20459;-81
2021/08/26 11:59:29;;;;;;;5.97;5.30;;;16.90;99.90;;;;;;4959316;28;20816;-81
2021/08/26 12:02:19;;;;;;;6.57;5.90;;;16.90;99.90;;;;;;4959483;28;20558;-81
2021/08/26 12:04:48;;;;;;;7.00;5.70;;;16.80;99.90;;;;;;4951448;28;20463;-82
2021/08/26 12:07:26;;;;;;;6.73;5.80;;;16.80;99.90;;;;;;4957080;28;20463;-81
2021/08/26 12:09:53;;;;;;;6.10;5.30;;;16.80;99.90;;;;;;4956987;28;20531;-82
2021/08/26 12:12:20;;;;;;;6.70;5.60;;;16.80;99.90;;;;;;4957295;28;20835;-82
2021/08/26 12:14:46;;;;;;;5.93;4.90;;;17.00;99.90;;;;;;4954955;28;20459;-82
2021/08/26 12:17:15;;;;;;;6.30;5.63;;;17.00;99.90;;;;;;4957706;28;20465;-81
2021/08/26 12:19:44;;;;;;;6.43;5.83;;;17.20;99.90;;;;;;4956236;28;20462;-82
2021/08/26 12:22:14;;;;;;;7.83;5.43;;;17.10;99.90;;;;;;4954851;28;21042;-80
2021/08/26 12:24:50;;;;;;;4.97;4.50;;;17.10;99.90;;;;;;4956381;28;20459;-81
2021/08/26 12:27:17;;;;;;;6.40;5.17;;;17.00;99.90;;;;;;4955079;28;20455;-82
2021/08/26 12:29:45;;;;;;;6.80;5.43;;;17.10;99.90;;;;;;4956372;28;20501;-82
2021/08/26 12:32:29;;;;;;;6.83;5.20;;;17.20;99.90;;;;;;4955131;28;20483;-82
2021/08/26 12:35:20;;;;;;;8.67;6.27;;;17.50;99.90;;;;;;4954451;28;21020;-82
2021/08/26 12:37:55;;;;;;;6.43;5.40;;;17.60;99.90;;;;;;4955154;28;20446;-83
2021/08/26 12:40:23;;;;;;;9.83;5.63;;;17.60;99.90;;;;;;4941497;28;20934;-82
2021/08/26 12:43:11;;;;;;;7.40;5.60;;;17.60;99.90;;;;;;4957522;28;20476;-83
2021/08/26 12:45:38;;;;;;;5.30;4.87;;;17.60;99.90;;;;;;4958273;28;20463;-80
2021/08/26 12:48:24;;;;;;;6.37;5.37;;;17.50;99.90;;;;;;4956467;28;20833;-80
2021/08/26 12:51:26;;;;;;;6.03;5.30;;;17.50;99.90;;;;;;4955874;28;20547;-81
2021/08/26 12:54:14;;;;;;;6.83;6.23;;;17.50;99.90;;;;;;4891128;29;20457;-81
2021/08/26 12:56:43;;;;;;;6.47;5.87;;;17.40;99.90;;;;;;4904205;29;21047;-82
2021/08/26 12:59:12;;;;;;;6.50;5.60;;;17.30;99.90;;;;;;4929189;28;20458;-82
2021/08/26 13:01:42;;;;;;;6.20;5.70;;;17.50;99.90;;;;;;4960497;28;21054;-81
2021/08/26 13:04:19;;;;;;;5.93;5.10;;;17.70;99.90;;;;;;4961516;28;20452;-81
2021/08/26 13:06:48;;;;;;;5.83;5.20;;;17.40;99.90;;;;;;4961724;28;20511;-83
2021/08/26 13:09:29;;;;;;;6.53;5.93;;;17.20;99.90;;;;;;4959711;28;20505;-81
2021/08/26 13:17:11;;;;;;;7.17;6.43;;;16.90;99.90;;;;;;4806113;23;20502;-81
2021/08/26 13:19:38;;;;;;;6.27;4.83;;;17.00;99.90;;;;;;4956095;29;20447;-81
2021/08/26 13:22:19;;;;;;;7.93;6.63;;;17.20;99.90;;;;;;4953270;29;21003;-82
2021/08/26 13:24:46;;;;;;;7.70;6.63;;;17.30;99.90;;;;;;4925914;29;20455;-81
2021/08/26 13:27:13;;;;;;;6.67;5.93;;;17.30;99.90;;;;;;4954606;29;20456;-82
2021/08/26 13:29:39;;;;;;;7.70;6.77;;;17.50;99.90;;;;;;4955243;29;20510;-82
2021/08/26 13:32:07;;;;;;;7.60;6.90;;;17.90;99.90;;;;;;4954764;29;20480;-81
2021/08/26 13:34:33;;;;;;;6.37;5.60;;;18.50;99.90;;;;;;4956423;29;20460;-82
2021/08/26 13:37:00;;;;;;;6.70;5.83;;;18.60;99.90;;;;;;4938269;29;20464;-82
2021/08/26 13:39:29;;;;;;;6.70;5.33;;;18.90;99.90;;;;;;4955379;28;20456;-83
2021/08/26 13:41:56;;;;;;;6.17;5.57;;;19.60;99.90;;;;;;4955913;28;20472;-83
2021/08/26 13:44:23;;;;;;;5.80;5.20;;;20.40;99.90;;;;;;4956864;29;20455;-82
2021/08/26 13:46:50;;;;;;;6.10;5.33;;;21.00;99.30;;;;;;4956011;29;20453;-83
2021/08/26 13:49:16;;;;;;;6.07;5.57;;;21.60;97.90;;;;;;4955600;28;20489;-83
2021/08/26 13:51:45;;;;;;;5.60;5.10;;;22.20;97.50;;;;;;4954167;28;20467;-82
2021/08/26 13:54:12;;;;;;;7.83;6.50;;;22.30;94.80;;;;;;4955374;29;20959;-83
2021/08/26 13:56:40;;;;;;;5.80;5.10;;;22.00;94.40;;;;;;4956256;29;20454;-83
2021/08/26 13:59:08;;;;;;;7.00;5.83;;;21.60;94.50;;;;;;4956953;29;20440;-83
2021/08/26 14:01:34;;;;;;;8.30;5.83;;;20.90;95.20;;;;;;4958075;29;20553;-83
2021/08/26 14:04:01;;;;;;;5.67;5.00;;;21.10;95.80;;;;;;4958593;29;20446;-83
2021/08/26 14:06:29;;;;;;;6.20;5.63;;;21.70;96.10;;;;;;4957334;29;20447;-81
2021/08/26 14:08:55;;;;;;;8.10;4.80;;;22.50;95.50;;;;;;4939130;29;20489;-82
2021/08/26 14:11:23;;;;;;;6.27;5.67;;;22.90;94.10;;;;;;4944095;29;20455;-82
2021/08/26 14:13:51;;;;;;;5.43;4.87;;;23.20;93.80;;;;;;4956372;29;20941;-83
2021/08/26 14:16:18;;;;;;;9.03;5.40;;;23.60;93.10;;;;;;4957504;29;20822;-83
2021/08/26 14:18:45;;;;;;;7.30;5.10;;;23.70;90.80;;;;;;4956984;29;20460;-83
2021/08/26 14:21:12;;;;;;;6.23;5.60;;;23.40;91.50;;;;;;4958212;28;20569;-83
2021/08/26 14:23:39;;;;;;;5.30;4.80;;;23.10;91.70;;;;;;4949776;29;20453;-83
2021/08/26 14:26:07;;;;;;;7.00;5.30;;;22.90;92.00;;;;;;4957981;28;20452;-83
2021/08/26 14:28:34;;;;;;;6.17;5.67;;;22.50;92.80;;;;;;4956619;29;20964;-83
2021/08/26 14:31:03;;;;;;;6.47;5.90;;;22.20;92.40;;;;;;4955423;28;20467;-82
2021/08/26 14:33:30;;;;;;;6.23;5.60;;;21.80;91.90;;;;;;4953580;29;20830;-83
2021/08/26 14:35:56;;;;;;;6.60;6.10;;;21.40;93.00;;;;;;4954606;29;20469;-83
2021/08/26 14:38:24;;;;;;;4.53;4.13;;;20.90;93.50;;;;;;4955025;29;20462;-83
2021/08/26 14:40:51;;;;;;;5.37;4.40;;;20.70;94.00;;;;;;4956420;29;20447;-82
2021/08/26 14:43:18;;;;;;;6.07;5.33;;;20.60;93.90;;;;;;4956618;29;20478;-83
2021/08/26 14:45:44;;;;;;;5.27;4.87;;;20.40;94.60;;;;;;4947108;29;20455;-82
2021/08/26 14:48:12;;;;;;;4.73;4.33;;;20.30;95.50;;;;;;4949920;29;20464;-82
2021/08/26 14:50:39;;;;;;;5.03;4.63;;;20.20;94.60;;;;;;4956217;28;20501;-81
2021/08/26 14:53:07;;;;;;;5.73;4.87;;;19.90;94.50;;;;;;4955415;29;20483;-82
2021/08/26 14:55:35;;;;;;;4.97;4.47;;;19.90;94.90;;;;;;4957271;28;20540;-82
2021/08/26 14:58:02;;;;;;;5.63;5.20;;;19.90;95.20;;;;;;4950301;29;20461;-83
2021/08/26 15:00:29;;;;;;;5.40;4.60;;;19.90;95.50;;;;;;4949199;29;20449;-82
2021/08/26 15:02:56;;;;;;;4.40;4.00;;;20.30;95.40;;;;;;4957578;29;20892;-83
2021/08/26 15:05:24;;;;;;;5.07;4.43;;;20.40;94.80;;;;;;4943311;29;20540;-84
2021/08/26 15:07:51;;;;;;;4.50;4.03;;;20.70;94.60;;;;;;4952446;29;20459;-80
2021/08/26 15:10:19;;;;;;;4.97;4.13;;;21.00;94.60;;;;;;4954767;28;20547;-83
2021/08/26 15:12:47;;;;;;;7.80;4.53;;;21.50;94.30;;;;;;4954784;28;20475;-81
2021/08/26 15:15:14;;;;;;;4.37;4.00;;;21.70;93.40;;;;;;4955443;29;20469;-82
2021/08/26 15:17:40;;;;;;;4.80;4.40;;;21.80;93.60;;;;;;4956498;29;20772;-83
2021/08/26 15:20:08;;;;;;;4.67;4.27;;;21.60;93.10;;;;;;4956121;29;20454;-83
2021/08/26 15:22:36;;;;;;;4.37;3.97;;;21.40;93.00;;;;;;4955639;29;20486;-82